sensor_id;sensor_type;location;lat;lon;timestamp;pressure;altitude;pressure_sealevel;temperature;humidity
11487;BME280;10510;47.942;9.442;2023-03-04T00:01:52;94958.50;;;-1.67;100.00
11487;BME280;10510;47.942;9.442;2023-03-04T00:03:53;94955.34;;;-1.70;100.00
11487;BME280;10510;47.942;9.442;2023-03-04T00:05:53;94952.13;;;-1.74;100.00
11487;BME280;10510;47.942;9.442;2023-03-04T00:07:53;94954.19;;;-1.79;100.00
11487;BME280;10510;47.942;9.442;2023-03-04T00:09:53;94957.84;;;-1.83;100.00
11487;BME280;10510;47.942;9.442;2023-03-04T00:11:54;94957.25;;;-1.87;100.00
11487;BME280;10510;47.942;9.442;2023-03-04T00:13:54;94960.81;;;-1.89;100.00
11487;BME280;10510;47.942;9.442;2023-03-04T00:15:55;94960.22;;;-1.93;100.00
11487;BME280;10510;47.942;9.442;2023-03-04T00:17:55;94959.47;;;-1.95;100.00
11487;BME280;10510;47.942;9.442;2023-03-04T00:19:56;94962.25;;;-1.98;100.00
11487;BME280;10510;47.942;9.442;2023-03-04T00:21:56;94962.44;;;-2.01;100.00
11487;BME280;10510;47.942;9.442;2023-03-04T00:23:56;94954.94;;;-2.04;100.00
11487;BME280;10510;47.942;9.442;2023-03-04T00:25:57;94953.41;;;-2.07;100.00
11487;BME280;10510;47.942;9.442;2023-03-04T00:27:57;94953.53;;;-2.08;100.00
11487;BME280;10510;47.942;9.442;2023-03-04T00:29:58;94959.53;;;-2.09;100.00
11487;BME280;10510;47.942;9.442;2023-03-04T00:31:58;94957.09;;;-2.11;100.00
11487;BME280;10510;47.942;9.442;2023-03-04T00:33:58;94967.44;;;-2.12;100.00
11487;BME280;10510;47.942;9.442;2023-03-04T00:35:59;94960.75;;;-2.15;100.00
11487;BME280;10510;47.942;9.442;2023-03-04T00:37:59;94958.41;;;-2.18;100.00
11487;BME280;10510;47.942;9.442;2023-03-04T00:40:00;94960.25;;;-2.20;100.00
11487;BME280;10510;47.942;9.442;2023-03-04T00:42:00;94963.72;;;-2.21;100.00
11487;BME280;10510;47.942;9.442;2023-03-04T00:44:00;94959.53;;;-2.22;100.00
11487;BME280;10510;47.942;9.442;2023-03-04T00:46:00;94962.28;;;-2.25;100.00
11487;BME280;10510;47.942;9.442;2023-03-04T00:48:01;94958.16;;;-2.28;100.00
11487;BME280;10510;47.942;9.442;2023-03-04T00:50:02;94966.88;;;-2.30;100.00
11487;BME280;10510;47.942;9.442;2023-03-04T00:52:02;94966.06;;;-2.31;100.00
11487;BME280;10510;47.942;9.442;2023-03-04T00:54:02;94966.97;;;-2.32;100.00
11487;BME280;10510;47.942;9.442;2023-03-04T00:56:03;94967.06;;;-2.33;100.00
11487;BME280;10510;47.942;9.442;2023-03-04T00:58:03;94968.00;;;-2.34;100.00
11487;BME280;10510;47.942;9.442;2023-03-04T01:00:04;94960.38;;;-2.36;100.00
11487;BME280;10510;47.942;9.442;2023-03-04T01:02:05;94960.50;;;-2.37;100.00
11487;BME280;10510;47.942;9.442;2023-03-04T01:04:05;94955.47;;;-2.39;100.00
11487;BME280;10510;47.942;9.442;2023-03-04T01:06:05;94955.66;;;-2.42;100.00
11487;BME280;10510;47.942;9.442;2023-03-04T01:08:06;94959.16;;;-2.43;100.00
11487;BME280;10510;47.942;9.442;2023-03-04T01:10:09;94954.22;;;-2.46;100.00
11487;BME280;10510;47.942;9.442;2023-03-04T01:12:09;94956.88;;;-2.47;100.00
11487;BME280;10510;47.942;9.442;2023-03-04T01:14:10;94954.41;;;-2.49;100.00
11487;BME280;10510;47.942;9.442;2023-03-04T01:16:10;94955.50;;;-2.53;100.00
11487;BME280;10510;47.942;9.442;2023-03-04T01:18:11;94955.69;;;-2.56;100.00
11487;BME280;10510;47.942;9.442;2023-03-04T01:20:12;94948.22;;;-2.59;100.00
11487;BME280;10510;47.942;9.442;2023-03-04T01:22:12;94951.09;;;-2.64;100.00
11487;BME280;10510;47.942;9.442;2023-03-04T01:24:14;94947.72;;;-2.64;100.00
11487;BME280;10510;47.942;9.442;2023-03-04T01:26:14;94952.91;;;-2.66;100.00
11487;BME280;10510;47.942;9.442;2023-03-04T01:28:14;94948.78;;;-2.68;100.00
11487;BME280;10510;47.942;9.442;2023-03-04T01:30:15;94948.09;;;-2.70;100.00
11487;BME280;10510;47.942;9.442;2023-03-04T01:32:15;94935.31;;;-2.70;100.00
11487;BME280;10510;47.942;9.442;2023-03-04T01:34:16;94934.66;;;-2.74;100.00
11487;BME280;10510;47.942;9.442;2023-03-04T01:36:17;94936.38;;;-2.75;100.00
11487;BME280;10510;47.942;9.442;2023-03-04T01:38:17;94938.13;;;-2.75;100.00
11487;BME280;10510;47.942;9.442;2023-03-04T01:40:18;94939.88;;;-2.76;100.00
11487;BME280;10510;47.942;9.442;2023-03-04T01:42:20;94939.06;;;-2.76;100.00
11487;BME280;10510;47.942;9.442;2023-03-04T01:44:21;94932.28;;;-2.77;100.00
11487;BME280;10510;47.942;9.442;2023-03-04T01:46:21;94935.66;;;-2.77;100.00
11487;BME280;10510;47.942;9.442;2023-03-04T01:48:34;94925.53;;;-2.78;100.00
11487;BME280;10510;47.942;9.442;2023-03-04T01:50:36;94934.94;;;-2.79;100.00
11487;BME280;10510;47.942;9.442;2023-03-04T01:52:37;94934.22;;;-2.81;100.00
11487;BME280;10510;47.942;9.442;2023-03-04T01:54:40;94923.25;;;-2.83;100.00
11487;BME280;10510;47.942;9.442;2023-03-04T01:56:43;94920.88;;;-2.86;100.00
11487;BME280;10510;47.942;9.442;2023-03-04T01:58:44;94916.88;;;-2.90;100.00
11487;BME280;10510;47.942;9.442;2023-03-04T02:00:45;94920.44;;;-2.92;100.00
11487;BME280;10510;47.942;9.442;2023-03-04T02:02:47;94912.22;;;-2.98;100.00
11487;BME280;10510;47.942;9.442;2023-03-04T02:04:48;94916.72;;;-3.01;100.00
11487;BME280;10510;47.942;9.442;2023-03-04T02:06:50;94914.25;;;-3.03;100.00
11487;BME280;10510;47.942;9.442;2023-03-04T02:08:50;94915.16;;;-3.04;100.00
11487;BME280;10510;47.942;9.442;2023-03-04T02:10:51;94916.09;;;-3.05;100.00
11487;BME280;10510;47.942;9.442;2023-03-04T02:12:52;94910.16;;;-3.05;100.00
11487;BME280;10510;47.942;9.442;2023-03-04T02:14:52;94911.06;;;-3.06;100.00
11487;BME280;10510;47.942;9.442;2023-03-04T02:16:53;94910.34;;;-3.08;100.00
11487;BME280;10510;47.942;9.442;2023-03-04T02:18:53;94914.00;;;-3.12;100.00
11487;BME280;10510;47.942;9.442;2023-03-04T02:23:10;94905.59;;;-3.14;100.00
11487;BME280;10510;47.942;9.442;2023-03-04T02:25:18;94903.94;;;-3.15;100.00
11487;BME280;10510;47.942;9.442;2023-03-04T02:27:20;94901.50;;;-3.17;100.00
11487;BME280;10510;47.942;9.442;2023-03-04T02:29:21;94900.69;;;-3.17;100.00
11487;BME280;10510;47.942;9.442;2023-03-04T02:31:31;94899.94;;;-3.20;100.00
11487;BME280;10510;47.942;9.442;2023-03-04T02:33:32;94906.69;;;-3.18;100.00
11487;BME280;10510;47.942;9.442;2023-03-04T02:35:32;94894.72;;;-3.18;100.00
11487;BME280;10510;47.942;9.442;2023-03-04T02:37:32;94900.75;;;-3.19;100.00
11487;BME280;10510;47.942;9.442;2023-03-04T02:39:36;94895.75;;;-3.21;100.00
11487;BME280;10510;47.942;9.442;2023-03-04T02:41:38;94906.16;;;-3.24;100.00
11487;BME280;10510;47.942;9.442;2023-03-04T02:43:39;94903.78;;;-3.27;100.00
11487;BME280;10510;47.942;9.442;2023-03-04T02:45:45;94902.88;;;-3.26;100.00
11487;BME280;10510;47.942;9.442;2023-03-04T02:47:46;94901.22;;;-3.27;100.00
11487;BME280;10510;47.942;9.442;2023-03-04T02:49:46;94902.25;;;-3.29;100.00
11487;BME280;10510;47.942;9.442;2023-03-04T02:51:50;94897.31;;;-3.32;100.00
11487;BME280;10510;47.942;9.442;2023-03-04T02:53:51;94898.22;;;-3.33;100.00
11487;BME280;10510;47.942;9.442;2023-03-04T02:55:51;94892.38;;;-3.35;100.00
11487;BME280;10510;47.942;9.442;2023-03-04T02:57:51;94900.88;;;-3.35;100.00
11487;BME280;10510;47.942;9.442;2023-03-04T02:59:52;94897.59;;;-3.37;100.00
11487;BME280;10510;47.942;9.442;2023-03-04T03:01:52;94895.03;;;-3.37;100.00
11487;BME280;10510;47.942;9.442;2023-03-04T03:03:52;94890.84;;;-3.38;100.00
11487;BME280;10510;47.942;9.442;2023-03-04T03:05:53;94894.28;;;-3.39;100.00
11487;BME280;10510;47.942;9.442;2023-03-04T03:07:53;94889.28;;;-3.40;100.00
11487;BME280;10510;47.942;9.442;2023-03-04T03:09:54;94889.38;;;-3.42;100.00
11487;BME280;10510;47.942;9.442;2023-03-04T03:11:54;94891.22;;;-3.44;100.00
11487;BME280;10510;47.942;9.442;2023-03-04T03:13:54;94887.81;;;-3.45;100.00
11487;BME280;10510;47.942;9.442;2023-03-04T03:15:55;94887.00;;;-3.45;100.00
11487;BME280;10510;47.942;9.442;2023-03-04T03:17:55;94892.03;;;-3.44;100.00
11487;BME280;10510;47.942;9.442;2023-03-04T03:19:56;94894.66;;;-3.45;100.00
11487;BME280;10510;47.942;9.442;2023-03-04T03:21:56;94893.13;;;-3.48;100.00
11487;BME280;10510;47.942;9.442;2023-03-04T03:23:56;94897.59;;;-3.51;100.00
11487;BME280;10510;47.942;9.442;2023-03-04T03:25:57;94892.66;;;-3.54;100.00
11487;BME280;10510;47.942;9.442;2023-03-04T03:27:57;94892.13;;;-3.59;100.00
11487;BME280;10510;47.942;9.442;2023-03-04T03:29:57;94896.53;;;-3.61;100.00
11487;BME280;10510;47.942;9.442;2023-03-04T03:31:58;94895.66;;;-3.62;100.00
11487;BME280;10510;47.942;9.442;2023-03-04T03:33:58;94901.81;;;-3.64;100.00
11487;BME280;10510;47.942;9.442;2023-03-04T03:35:58;94900.16;;;-3.66;100.00
11487;BME280;10510;47.942;9.442;2023-03-04T03:37:59;94897.78;;;-3.69;100.00
11487;BME280;10510;47.942;9.442;2023-03-04T03:39:59;94903.69;;;-3.68;100.00
11487;BME280;10510;47.942;9.442;2023-03-04T03:41:59;94901.16;;;-3.68;100.00
11487;BME280;10510;47.942;9.442;2023-03-04T03:44:00;94896.03;;;-3.68;100.00
11487;BME280;10510;47.942;9.442;2023-03-04T03:46:00;94897.03;;;-3.71;100.00
11487;BME280;10510;47.942;9.442;2023-03-04T03:48:01;94898.06;;;-3.73;100.00
11487;BME280;10510;47.942;9.442;2023-03-04T03:50:01;94899.06;;;-3.76;100.00
11487;BME280;10510;47.942;9.442;2023-03-04T03:52:02;94893.31;;;-3.79;100.00
11487;BME280;10510;47.942;9.442;2023-03-04T03:54:02;94896.78;;;-3.80;100.00
11487;BME280;10510;47.942;9.442;2023-03-04T03:56:03;94892.66;;;-3.83;100.00
11487;BME280;10510;47.942;9.442;2023-03-04T03:58:03;94894.50;;;-3.85;100.00
11487;BME280;10510;47.942;9.442;2023-03-04T04:00:05;94890.28;;;-3.86;100.00
11487;BME280;10510;47.942;9.442;2023-03-04T04:02:06;94892.84;;;-3.86;100.00
11487;BME280;10510;47.942;9.442;2023-03-04T04:04:06;94890.38;;;-3.88;100.00
11487;BME280;10510;47.942;9.442;2023-03-04T04:06:07;94889.56;;;-3.88;100.00
11487;BME280;10510;47.942;9.442;2023-03-04T04:08:11;94888.72;;;-3.89;100.00
11487;BME280;10510;47.942;9.442;2023-03-04T04:10:12;94886.28;;;-3.90;100.00
11487;BME280;10510;47.942;9.442;2023-03-04T04:12:14;94891.56;;;-3.93;100.00
11487;BME280;10510;47.942;9.442;2023-03-04T04:14:14;94893.19;;;-3.92;100.00
11487;BME280;10510;47.942;9.442;2023-03-04T04:16:14;94897.50;;;-3.93;100.00
11487;BME280;10510;47.942;9.442;2023-03-04T04:18:15;94895.84;;;-3.94;100.00
11487;BME280;10510;47.942;9.442;2023-03-04T04:20:15;94897.56;;;-3.94;100.00
11487;BME280;10510;47.942;9.442;2023-03-04T04:22:18;94893.38;;;-3.95;100.00
11487;BME280;10510;47.942;9.442;2023-03-04T04:24:20;94895.94;;;-3.95;100.00
11487;BME280;10510;47.942;9.442;2023-03-04T04:26:20;94895.94;;;-3.95;100.00
11487;BME280;10510;47.942;9.442;2023-03-04T04:28:21;94889.09;;;-3.95;100.00
11487;BME280;10510;47.942;9.442;2023-03-04T04:30:21;94889.91;;;-3.94;100.00
11487;BME280;10510;47.942;9.442;2023-03-04T04:32:21;94885.72;;;-3.95;100.00
11487;BME280;10510;47.942;9.442;2023-03-04T04:34:21;94886.63;;;-3.96;100.00
11487;BME280;10510;47.942;9.442;2023-03-04T04:36:22;94888.28;;;-3.95;100.00
11487;BME280;10510;47.942;9.442;2023-03-04T04:38:22;94889.91;;;-3.94;100.00
11487;BME280;10510;47.942;9.442;2023-03-04T04:40:23;94891.56;;;-3.93;100.00
11487;BME280;10510;47.942;9.442;2023-03-04T04:42:24;94894.00;;;-3.92;100.00
11487;BME280;10510;47.942;9.442;2023-03-04T04:44:24;94886.34;;;-3.92;100.00
11487;BME280;10510;47.942;9.442;2023-03-04T04:46:25;94888.00;;;-3.91;100.00
11487;BME280;10510;47.942;9.442;2023-03-04T04:48:25;94890.47;;;-3.89;100.00
11487;BME280;10510;47.942;9.442;2023-03-04T04:50:26;94893.03;;;-3.89;100.00
11487;BME280;10510;47.942;9.442;2023-03-04T04:52:26;94893.03;;;-3.89;100.00
11487;BME280;10510;47.942;9.442;2023-03-04T04:54:26;94892.31;;;-3.91;100.00
11487;BME280;10510;47.942;9.442;2023-03-04T04:56:27;94897.31;;;-3.90;100.00
11487;BME280;10510;47.942;9.442;2023-03-04T04:58:28;94897.50;;;-3.93;100.00
11487;BME280;10510;47.942;9.442;2023-03-04T05:00:28;94898.41;;;-3.94;100.00
11487;BME280;10510;47.942;9.442;2023-03-04T05:02:28;94903.59;;;-3.95;100.00
11487;BME280;10510;47.942;9.442;2023-03-04T05:04:28;94901.97;;;-3.96;100.00
11487;BME280;10510;47.942;9.442;2023-03-04T05:06:29;94903.69;;;-3.97;100.00
11487;BME280;10510;47.942;9.442;2023-03-04T05:08:29;94903.78;;;-3.98;100.00
11487;BME280;10510;47.942;9.442;2023-03-04T05:10:29;94906.31;;;-3.98;100.00
11487;BME280;10510;47.942;9.442;2023-03-04T05:12:30;94911.72;;;-4.03;100.00
11487;BME280;10510;47.942;9.442;2023-03-04T05:14:30;94905.88;;;-4.05;100.00
11487;BME280;10510;47.942;9.442;2023-03-04T05:16:30;94911.97;;;-4.07;100.00
11487;BME280;10510;47.942;9.442;2023-03-04T05:18:31;94918.81;;;-4.08;100.00
11487;BME280;10510;47.942;9.442;2023-03-04T05:20:31;94910.41;;;-4.10;100.00
11487;BME280;10510;47.942;9.442;2023-03-04T05:22:32;94905.47;;;-4.13;100.00
11487;BME280;10510;47.942;9.442;2023-03-04T05:24:32;94914.88;;;-4.14;100.00
11487;BME280;10510;47.942;9.442;2023-03-04T05:26:33;94908.13;;;-4.15;100.00
11487;BME280;10510;47.942;9.442;2023-03-04T05:28:34;94911.50;;;-4.14;100.00
11487;BME280;10510;47.942;9.442;2023-03-04T05:30:35;94910.75;;;-4.16;100.00
11487;BME280;10510;47.942;9.442;2023-03-04T05:32:35;94908.22;;;-4.16;100.00
11487;BME280;10510;47.942;9.442;2023-03-04T05:34:35;94914.25;;;-4.17;100.00
11487;BME280;10510;47.942;9.442;2023-03-04T05:36:35;94910.13;;;-4.20;100.00
11487;BME280;10510;47.942;9.442;2023-03-04T05:38:36;94903.34;;;-4.21;100.00
11487;BME280;10510;47.942;9.442;2023-03-04T05:40:37;94905.09;;;-4.21;100.00
11487;BME280;10510;47.942;9.442;2023-03-04T05:42:38;94911.13;;;-4.22;100.00
11487;BME280;10510;47.942;9.442;2023-03-04T05:44:38;94910.31;;;-4.23;100.00
11487;BME280;10510;47.942;9.442;2023-03-04T05:46:38;94913.75;;;-4.24;100.00
11487;BME280;10510;47.942;9.442;2023-03-04T05:48:38;94905.38;;;-4.26;100.00
11487;BME280;10510;47.942;9.442;2023-03-04T05:50:39;94908.91;;;-4.28;100.00
11487;BME280;10510;47.942;9.442;2023-03-04T05:52:39;94910.66;;;-4.29;100.00
11487;BME280;10510;47.942;9.442;2023-03-04T05:54:39;94903.06;;;-4.30;100.00
11487;BME280;10510;47.942;9.442;2023-03-04T05:56:40;94909.00;;;-4.30;100.00
11487;BME280;10510;47.942;9.442;2023-03-04T05:58:40;94902.25;;;-4.31;100.00
11487;BME280;10510;47.942;9.442;2023-03-04T06:00:41;94914.09;;;-4.30;100.00
11487;BME280;10510;47.942;9.442;2023-03-04T06:02:42;94914.09;;;-4.30;100.00
11487;BME280;10510;47.942;9.442;2023-03-04T06:04:43;94918.31;;;-4.29;100.00
11487;BME280;10510;47.942;9.442;2023-03-04T06:06:43;94914.84;;;-4.28;100.00
11487;BME280;10510;47.942;9.442;2023-03-04T06:08:45;94910.47;;;-4.26;100.00
11487;BME280;10510;47.942;9.442;2023-03-04T06:10:45;94910.38;;;-4.24;100.00
11487;BME280;10510;47.942;9.442;2023-03-04T06:12:46;94912.84;;;-4.23;100.00
11487;BME280;10510;47.942;9.442;2023-03-04T06:14:46;94921.22;;;-4.21;100.00
11487;BME280;10510;47.942;9.442;2023-03-04T06:16:46;94925.44;;;-4.20;100.00
11487;BME280;10510;47.942;9.442;2023-03-04T06:18:47;94921.91;;;-4.17;100.00
11487;BME280;10510;47.942;9.442;2023-03-04T06:20:47;94931.13;;;-4.15;100.00
11487;BME280;10510;47.942;9.442;2023-03-04T06:22:48;94919.97;;;-4.14;100.00
11487;BME280;10510;47.942;9.442;2023-03-04T06:24:48;94925.66;;;-4.08;100.00
11487;BME280;10510;47.942;9.442;2023-03-04T06:26:48;94930.66;;;-4.07;100.00
11487;BME280;10510;47.942;9.442;2023-03-04T06:28:49;94934.78;;;-4.04;100.00
11487;BME280;10510;47.942;9.442;2023-03-04T06:30:54;94937.31;;;-4.04;100.00
11487;BME280;10510;47.942;9.442;2023-03-04T06:32:54;94934.69;;;-4.03;100.00
11487;BME280;10510;47.942;9.442;2023-03-04T06:34:54;94939.63;;;-4.00;100.00
11487;BME280;10510;47.942;9.442;2023-03-04T06:36:55;94941.16;;;-3.97;100.00
11487;BME280;10510;47.942;9.442;2023-03-04T06:38:55;94947.75;;;-3.93;100.00
11487;BME280;10510;47.942;9.442;2023-03-04T06:40:55;94944.09;;;-3.89;100.00
11487;BME280;10510;47.942;9.442;2023-03-04T06:42:56;94945.66;;;-3.86;100.00
11487;BME280;10510;47.942;9.442;2023-03-04T06:44:56;94945.31;;;-3.80;100.00
11487;BME280;10510;47.942;9.442;2023-03-04T06:46:56;94941.56;;;-3.75;100.00
11487;BME280;10510;47.942;9.442;2023-03-04T06:48:57;94948.88;;;-3.69;100.00
11487;BME280;10510;47.942;9.442;2023-03-04T06:50:57;94942.69;;;-3.64;100.00
11487;BME280;10510;47.942;9.442;2023-03-04T06:52:57;94940.66;;;-3.59;100.00
11487;BME280;10510;47.942;9.442;2023-03-04T06:54:57;94942.97;;;-3.55;100.00
11487;BME280;10510;47.942;9.442;2023-03-04T06:56:58;94945.03;;;-3.47;100.00
11487;BME280;10510;47.942;9.442;2023-03-04T06:58:58;94944.53;;;-3.38;100.00
11487;BME280;10510;47.942;9.442;2023-03-04T07:01:10;94944.88;;;-3.30;100.00
11487;BME280;10510;47.942;9.442;2023-03-04T07:03:11;94939.94;;;-3.18;100.00
11487;BME280;10510;47.942;9.442;2023-03-04T07:05:12;94942.84;;;-3.10;100.00
11487;BME280;10510;47.942;9.442;2023-03-04T07:07:12;94944.03;;;-3.02;100.00
11487;BME280;10510;47.942;9.442;2023-03-04T07:09:13;94948.69;;;-2.94;100.00
11487;BME280;10510;47.942;9.442;2023-03-04T07:11:13;94947.38;;;-2.87;100.00
11487;BME280;10510;47.942;9.442;2023-03-04T07:13:14;94947.53;;;-2.76;100.00
11487;BME280;10510;47.942;9.442;2023-03-04T07:15:14;94946.88;;;-2.65;100.00
11487;BME280;10510;47.942;9.442;2023-03-04T07:17:14;94948.69;;;-2.53;100.00
11487;BME280;10510;47.942;9.442;2023-03-04T07:19:14;94945.41;;;-2.42;100.00
11487;BME280;10510;47.942;9.442;2023-03-04T07:21:15;94952.31;;;-2.30;100.00
11487;BME280;10510;47.942;9.442;2023-03-04T07:23:16;94955.75;;;-2.16;100.00
11487;BME280;10510;47.942;9.442;2023-03-04T07:25:16;94951.47;;;-2.03;100.00
11487;BME280;10510;47.942;9.442;2023-03-04T07:27:17;94950.69;;;-1.91;100.00
11487;BME280;10510;47.942;9.442;2023-03-04T07:29:17;94951.50;;;-1.77;100.00
11487;BME280;10510;47.942;9.442;2023-03-04T07:31:24;94961.81;;;-1.65;100.00
11487;BME280;10510;47.942;9.442;2023-03-04T07:33:24;94958.28;;;-1.51;100.00
11487;BME280;10510;47.942;9.442;2023-03-04T07:35:24;94956.66;;;-1.39;100.00
11487;BME280;10510;47.942;9.442;2023-03-04T07:37:25;94956.66;;;-1.26;100.00
11487;BME280;10510;47.942;9.442;2023-03-04T07:39:25;94947.94;;;-1.11;100.00
11487;BME280;10510;47.942;9.442;2023-03-04T07:41:27;94950.38;;;-0.97;100.00
11487;BME280;10510;47.942;9.442;2023-03-04T07:43:27;94950.72;;;-0.77;100.00
11487;BME280;10510;47.942;9.442;2023-03-04T07:45:28;94957.53;;;-0.52;100.00
11487;BME280;10510;47.942;9.442;2023-03-04T07:47:28;94951.25;;;-0.24;100.00
11487;BME280;10510;47.942;9.442;2023-03-04T07:49:28;94958.72;;;0.03;100.00
11487;BME280;10510;47.942;9.442;2023-03-04T07:51:29;94953.09;;;0.33;100.00
11487;BME280;10510;47.942;9.442;2023-03-04T07:53:30;94954.06;;;0.66;100.00
11487;BME280;10510;47.942;9.442;2023-03-04T07:55:31;94949.31;;;0.95;100.00
11487;BME280;10510;47.942;9.442;2023-03-04T07:57:31;94954.09;;;1.22;100.00
11487;BME280;10510;47.942;9.442;2023-03-04T07:59:31;94949.34;;;1.50;100.00
11487;BME280;10510;47.942;9.442;2023-03-04T08:01:36;94941.06;;;1.78;100.00
11487;BME280;10510;47.942;9.442;2023-03-04T08:03:36;94955.41;;;2.03;100.00
11487;BME280;10510;47.942;9.442;2023-03-04T08:05:39;94950.84;;;2.28;100.00
11487;BME280;10510;47.942;9.442;2023-03-04T08:07:40;94949.66;;;2.53;100.00
11487;BME280;10510;47.942;9.442;2023-03-04T08:09:40;94957.53;;;2.82;100.00
11487;BME280;10510;47.942;9.442;2023-03-04T08:11:41;94949.25;;;3.09;100.00
11487;BME280;10510;47.942;9.442;2023-03-04T08:13:42;94947.59;;;3.39;100.00
11487;BME280;10510;47.942;9.442;2023-03-04T08:15:43;94944.50;;;3.64;100.00
11487;BME280;10510;47.942;9.442;2023-03-04T08:17:43;94942.09;;;3.92;100.00
11487;BME280;10510;47.942;9.442;2023-03-04T08:19:43;94942.50;;;4.17;100.00
11487;BME280;10510;47.942;9.442;2023-03-04T08:21:43;94945.09;;;4.36;100.00
11487;BME280;10510;47.942;9.442;2023-03-04T08:23:45;94949.13;;;4.58;100.00
11487;BME280;10510;47.942;9.442;2023-03-04T08:25:46;94941.47;;;4.76;100.00
11487;BME280;10510;47.942;9.442;2023-03-04T08:27:46;94945.63;;;4.96;100.00
11487;BME280;10510;47.942;9.442;2023-03-04T08:29:46;94940.50;;;5.24;100.00
11487;BME280;10510;47.942;9.442;2023-03-04T08:31:48;94938.31;;;5.47;100.00
11487;BME280;10510;47.942;9.442;2023-03-04T08:33:49;94934.31;;;5.62;100.00
11487;BME280;10510;47.942;9.442;2023-03-04T08:35:50;94949.38;;;5.77;100.00
11487;BME280;10510;47.942;9.442;2023-03-04T08:37:50;94941.41;;;6.06;100.00
11487;BME280;10510;47.942;9.442;2023-03-04T08:39:50;94947.34;;;6.34;100.00
11487;BME280;10510;47.942;9.442;2023-03-04T08:41:51;94937.66;;;6.62;100.00
11487;BME280;10510;47.942;9.442;2023-03-04T08:43:51;94930.91;;;6.95;100.00
11487;BME280;10510;47.942;9.442;2023-03-04T08:45:53;94935.75;;;7.24;100.00
11487;BME280;10510;47.942;9.442;2023-03-04T08:47:53;94928.22;;;7.56;100.00
11487;BME280;10510;47.942;9.442;2023-03-04T08:49:53;94928.81;;;7.84;100.00
11487;BME280;10510;47.942;9.442;2023-03-04T08:51:54;94934.06;;;8.08;100.00
11487;BME280;10510;47.942;9.442;2023-03-04T08:53:54;94932.50;;;8.40;100.00
11487;BME280;10510;47.942;9.442;2023-03-04T08:55:54;94931.19;;;8.60;100.00
11487;BME280;10510;47.942;9.442;2023-03-04T08:57:55;94933.28;;;8.81;100.00
11487;BME280;10510;47.942;9.442;2023-03-04T08:59:55;94936.34;;;9.01;100.00
11487;BME280;10510;47.942;9.442;2023-03-04T09:01:55;94925.25;;;9.16;100.00
11487;BME280;10510;47.942;9.442;2023-03-04T09:03:55;94927.63;;;9.33;100.00
11487;BME280;10510;47.942;9.442;2023-03-04T09:05:56;94931.81;;;9.51;100.00
11487;BME280;10510;47.942;9.442;2023-03-04T09:07:56;94935.16;;;9.68;100.00
11487;BME280;10510;47.942;9.442;2023-03-04T09:09:56;94932.09;;;9.87;100.00
11487;BME280;10510;47.942;9.442;2023-03-04T09:11:57;94936.03;;;9.91;100.00
11487;BME280;10510;47.942;9.442;2023-03-04T09:13:57;94932.88;;;9.96;100.00
11487;BME280;10510;47.942;9.442;2023-03-04T09:15:58;94929.06;;;10.07;100.00
11487;BME280;10510;47.942;9.442;2023-03-04T09:18:00;94935.22;;;10.14;100.00
11487;BME280;10510;47.942;9.442;2023-03-04T09:20:01;94929.81;;;9.92;100.00
11487;BME280;10510;47.942;9.442;2023-03-04T09:22:01;94926.00;;;9.72;100.00
11487;BME280;10510;47.942;9.442;2023-03-04T09:24:01;94925.66;;;9.75;100.00
11487;BME280;10510;47.942;9.442;2023-03-04T09:26:19;94931.16;;;10.11;100.00
11487;BME280;10510;47.942;9.442;2023-03-04T09:28:20;94929.31;;;10.20;100.00
11487;BME280;10510;47.942;9.442;2023-03-04T09:30:21;94931.84;;;10.36;100.00
11487;BME280;10510;47.942;9.442;2023-03-04T09:32:21;94924.25;;;10.64;100.00
11487;BME280;10510;47.942;9.442;2023-03-04T09:34:21;94925.34;;;10.70;100.00
11487;BME280;10510;47.942;9.442;2023-03-04T09:36:22;94921.97;;;10.84;100.00
11487;BME280;10510;47.942;9.442;2023-03-04T09:38:22;94921.09;;;10.92;100.00
11487;BME280;10510;47.942;9.442;2023-03-04T09:40:27;94922.44;;;11.18;100.00
11487;BME280;10510;47.942;9.442;2023-03-04T09:42:34;94927.34;;;11.21;100.00
11487;BME280;10510;47.942;9.442;2023-03-04T09:44:41;94915.59;;;11.31;100.00
11487;BME280;10510;47.942;9.442;2023-03-04T09:46:44;94924.06;;;11.63;100.00
11487;BME280;10510;47.942;9.442;2023-03-04T09:48:50;94919.81;;;11.77;100.00
11487;BME280;10510;47.942;9.442;2023-03-04T09:55:54;94919.75;;;12.07;100.00
11487;BME280;10510;47.942;9.442;2023-03-04T09:57:56;94913.28;;;12.45;100.00
11487;BME280;10510;47.942;9.442;2023-03-04T10:00:20;94913.97;;;12.82;100.00
11487;BME280;10510;47.942;9.442;2023-03-04T10:02:42;94915.53;;;12.98;100.00
11487;BME280;10510;47.942;9.442;2023-03-04T10:04:49;94915.53;;;12.98;100.00
11487;BME280;10510;47.942;9.442;2023-03-04T10:06:52;94910.53;;;13.03;100.00
11487;BME280;10510;47.942;9.442;2023-03-04T10:09:15;94914.66;;;13.19;100.00
11487;BME280;10510;47.942;9.442;2023-03-04T10:11:42;94912.38;;;13.44;100.00
11487;BME280;10510;47.942;9.442;2023-03-04T10:13:56;94906.13;;;13.38;100.00
11487;BME280;10510;47.942;9.442;2023-03-04T10:16:00;94905.66;;;13.28;100.00
11487;BME280;10510;47.942;9.442;2023-03-04T10:18:11;94914.03;;;13.45;100.00
11487;BME280;10510;47.942;9.442;2023-03-04T10:20:26;94901.94;;;13.23;100.00
11487;BME280;10510;47.942;9.442;2023-03-04T10:22:40;94902.31;;;13.13;100.00
11487;BME280;10510;47.942;9.442;2023-03-04T10:24:42;94901.44;;;13.34;100.00
11487;BME280;10510;47.942;9.442;2023-03-04T10:26:50;94907.00;;;13.52;100.00
11487;BME280;10510;47.942;9.442;2023-03-04T10:28:51;94902.47;;;13.33;100.00
11487;BME280;10510;47.942;9.442;2023-03-04T10:33:14;94899.78;;;12.98;100.00
11487;BME280;10510;47.942;9.442;2023-03-04T10:35:26;94903.31;;;13.12;100.00
11487;BME280;10510;47.942;9.442;2023-03-04T10:37:49;94897.19;;;13.05;100.00
11487;BME280;10510;47.942;9.442;2023-03-04T10:39:50;94892.31;;;12.95;100.00
11487;BME280;10510;47.942;9.442;2023-03-04T10:44:13;94891.22;;;13.17;100.00
11487;BME280;10510;47.942;9.442;2023-03-04T10:46:15;94894.41;;;13.41;100.00
11487;BME280;10510;47.942;9.442;2023-03-04T10:48:20;94894.59;;;13.33;100.00
11487;BME280;10510;47.942;9.442;2023-03-04T10:50:24;94890.03;;;13.20;100.00